sensor_id;sensor_type;location;lat;lon;timestamp;P1;durP1;ratioP1;P2;durP2;ratioP2
53618;SDS011;68717;53.040;18.488;2023-05-07T00:00:07;25.30;;;15.77;;
53618;SDS011;68717;53.040;18.488;2023-05-07T00:00:36;27.48;;;15.95;;
53618;SDS011;68717;53.040;18.488;2023-05-07T00:01:04;26.95;;;15.35;;
53618;SDS011;68717;53.040;18.488;2023-05-07T00:01:19;26.15;;;15.15;;
53618;SDS011;68717;53.040;18.488;2023-05-07T00:01:33;25.27;;;14.75;;
53618;SDS011;68717;53.040;18.488;2023-05-07T00:01:46;24.20;;;14.23;;
53618;SDS011;68717;53.040;18.488;2023-05-07T00:01:58;22.48;;;14.02;;
53618;SDS011;68717;53.040;18.488;2023-05-07T00:02:11;22.60;;;14.23;;
53618;SDS011;68717;53.040;18.488;2023-05-07T00:02:24;23.92;;;14.85;;
53618;SDS011;68717;53.040;18.488;2023-05-07T00:02:37;26.25;;;15.15;;
53618;SDS011;68717;53.040;18.488;2023-05-07T00:02:50;28.27;;;15.40;;
53618;SDS011;68717;53.040;18.488;2023-05-07T00:03:04;26.15;;;15.32;;
53618;SDS011;68717;53.040;18.488;2023-05-07T00:03:17;25.45;;;15.32;;
53618;SDS011;68717;53.040;18.488;2023-05-07T00:03:31;26.45;;;15.43;;
53618;SDS011;68717;53.040;18.488;2023-05-07T00:03:44;25.33;;;14.77;;
53618;SDS011;68717;53.040;18.488;2023-05-07T00:03:57;23.60;;;14.05;;
53618;SDS011;68717;53.040;18.488;2023-05-07T00:04:10;23.00;;;14.15;;
53618;SDS011;68717;53.040;18.488;2023-05-07T00:04:23;23.42;;;14.27;;
53618;SDS011;68717;53.040;18.488;2023-05-07T00:04:37;22.70;;;13.95;;
53618;SDS011;68717;53.040;18.488;2023-05-07T00:04:51;24.00;;;13.90;;
53618;SDS011;68717;53.040;18.488;2023-05-07T00:05:04;25.08;;;14.07;;
53618;SDS011;68717;53.040;18.488;2023-05-07T00:05:17;24.33;;;14.18;;
53618;SDS011;68717;53.040;18.488;2023-05-07T00:05:30;24.05;;;13.63;;
53618;SDS011;68717;53.040;18.488;2023-05-07T00:05:43;25.25;;;13.75;;
53618;SDS011;68717;53.040;18.488;2023-05-07T00:05:56;24.20;;;13.65;;
53618;SDS011;68717;53.040;18.488;2023-05-07T00:06:09;22.13;;;13.02;;
53618;SDS011;68717;53.040;18.488;2023-05-07T00:06:24;22.35;;;12.65;;
53618;SDS011;68717;53.040;18.488;2023-05-07T00:06:38;23.27;;;12.55;;
53618;SDS011;68717;53.040;18.488;2023-05-07T00:06:51;22.25;;;12.13;;
53618;SDS011;68717;53.040;18.488;2023-05-07T00:07:04;21.05;;;11.77;;
53618;SDS011;68717;53.040;18.488;2023-05-07T00:07:17;21.58;;;12.27;;
53618;SDS011;68717;53.040;18.488;2023-05-07T00:07:30;21.50;;;12.65;;
53618;SDS011;68717;53.040;18.488;2023-05-07T00:07:42;21.58;;;12.77;;
53618;SDS011;68717;53.040;18.488;2023-05-07T00:07:56;22.13;;;12.80;;
53618;SDS011;68717;53.040;18.488;2023-05-07T00:08:10;22.55;;;12.75;;
53618;SDS011;68717;53.040;18.488;2023-05-07T00:08:23;21.85;;;12.40;;
53618;SDS011;68717;53.040;18.488;2023-05-07T00:08:36;21.23;;;12.05;;
53618;SDS011;68717;53.040;18.488;2023-05-07T00:08:49;21.45;;;12.32;;
53618;SDS011;68717;53.040;18.488;2023-05-07T00:09:01;22.27;;;12.70;;
53618;SDS011;68717;53.040;18.488;2023-05-07T00:09:15;23.35;;;12.95;;
53618;SDS011;68717;53.040;18.488;2023-05-07T00:09:28;22.52;;;12.93;;
53618;SDS011;68717;53.040;18.488;2023-05-07T00:09:42;20.52;;;12.43;;
53618;SDS011;68717;53.040;18.488;2023-05-07T00:09:54;20.45;;;12.30;;
53618;SDS011;68717;53.040;18.488;2023-05-07T00:10:07;21.05;;;12.27;;
53618;SDS011;68717;53.040;18.488;2023-05-07T00:10:21;20.80;;;11.98;;
53618;SDS011;68717;53.040;18.488;2023-05-07T00:10:33;21.02;;;11.82;;
53618;SDS011;68717;53.040;18.488;2023-05-07T00:10:46;20.25;;;11.57;;
53618;SDS011;68717;53.040;18.488;2023-05-07T00:10:58;18.40;;;11.43;;
53618;SDS011;68717;53.040;18.488;2023-05-07T00:11:11;19.48;;;11.75;;
53618;SDS011;68717;53.040;18.488;2023-05-07T00:11:23;19.27;;;12.02;;
53618;SDS011;68717;53.040;18.488;2023-05-07T00:11:37;20.95;;;11.90;;
53618;SDS011;68717;53.040;18.488;2023-05-07T00:11:50;21.75;;;12.07;;
53618;SDS011;68717;53.040;18.488;2023-05-07T00:12:03;19.58;;;11.85;;
53618;SDS011;68717;53.040;18.488;2023-05-07T00:12:15;19.83;;;11.90;;
53618;SDS011;68717;53.040;18.488;2023-05-07T00:12:28;20.45;;;12.07;;
53618;SDS011;68717;53.040;18.488;2023-05-07T00:12:43;20.27;;;12.23;;
53618;SDS011;68717;53.040;18.488;2023-05-07T00:12:56;18.98;;;12.10;;
53618;SDS011;68717;53.040;18.488;2023-05-07T00:13:09;20.00;;;12.20;;
53618;SDS011;68717;53.040;18.488;2023-05-07T00:13:22;21.75;;;13.02;;
53618;SDS011;68717;53.040;18.488;2023-05-07T00:13:35;22.88;;;13.18;;
53618;SDS011;68717;53.040;18.488;2023-05-07T00:13:48;24.45;;;13.93;;
53618;SDS011;68717;53.040;18.488;2023-05-07T00:14:00;23.55;;;14.13;;
53618;SDS011;68717;53.040;18.488;2023-05-07T00:14:13;23.50;;;14.35;;
53618;SDS011;68717;53.040;18.488;2023-05-07T00:14:25;23.90;;;14.75;;
53618;SDS011;68717;53.040;18.488;2023-05-07T00:14:38;25.10;;;15.20;;
53618;SDS011;68717;53.040;18.488;2023-05-07T00:14:52;26.83;;;15.85;;
53618;SDS011;68717;53.040;18.488;2023-05-07T00:15:05;27.65;;;16.17;;
53618;SDS011;68717;53.040;18.488;2023-05-07T00:15:18;27.42;;;15.80;;
53618;SDS011;68717;53.040;18.488;2023-05-07T00:15:31;27.05;;;15.80;;
53618;SDS011;68717;53.040;18.488;2023-05-07T00:15:44;27.55;;;16.00;;
53618;SDS011;68717;53.040;18.488;2023-05-07T00:15:56;28.27;;;16.23;;
53618;SDS011;68717;53.040;18.488;2023-05-07T00:16:09;26.80;;;15.55;;
53618;SDS011;68717;53.040;18.488;2023-05-07T00:16:22;24.27;;;14.63;;
53618;SDS011;68717;53.040;18.488;2023-05-07T00:16:37;23.40;;;14.23;;
53618;SDS011;68717;53.040;18.488;2023-05-07T00:16:49;23.40;;;14.32;;
53618;SDS011;68717;53.040;18.488;2023-05-07T00:17:02;23.25;;;14.57;;
53618;SDS011;68717;53.040;18.488;2023-05-07T00:17:15;22.73;;;14.18;;
53618;SDS011;68717;53.040;18.488;2023-05-07T00:17:27;23.42;;;13.98;;
53618;SDS011;68717;53.040;18.488;2023-05-07T00:17:40;25.17;;;13.90;;
53618;SDS011;68717;53.040;18.488;2023-05-07T00:17:55;24.10;;;13.85;;
53618;SDS011;68717;53.040;18.488;2023-05-07T00:18:08;22.10;;;13.52;;
53618;SDS011;68717;53.040;18.488;2023-05-07T00:18:20;23.20;;;13.82;;
53618;SDS011;68717;53.040;18.488;2023-05-07T00:18:34;22.35;;;13.60;;
53618;SDS011;68717;53.040;18.488;2023-05-07T00:18:47;20.73;;;13.07;;
53618;SDS011;68717;53.040;18.488;2023-05-07T00:18:59;21.25;;;13.35;;
53618;SDS011;68717;53.040;18.488;2023-05-07T00:19:13;21.98;;;13.82;;
53618;SDS011;68717;53.040;18.488;2023-05-07T00:19:26;22.48;;;13.85;;
53618;SDS011;68717;53.040;18.488;2023-05-07T00:19:39;22.98;;;13.65;;
53618;SDS011;68717;53.040;18.488;2023-05-07T00:19:51;22.48;;;13.18;;
53618;SDS011;68717;53.040;18.488;2023-05-07T00:20:04;22.52;;;13.68;;
53618;SDS011;68717;53.040;18.488;2023-05-07T00:20:17;23.35;;;14.05;;
53618;SDS011;68717;53.040;18.488;2023-05-07T00:20:30;24.17;;;14.13;;
53618;SDS011;68717;53.040;18.488;2023-05-07T00:20:46;25.06;;;14.30;;
53618;SDS011;68717;53.040;18.488;2023-05-07T00:20:59;24.27;;;14.25;;
53618;SDS011;68717;53.040;18.488;2023-05-07T00:21:12;23.15;;;13.57;;
53618;SDS011;68717;53.040;18.488;2023-05-07T00:21:24;22.70;;;13.63;;
53618;SDS011;68717;53.040;18.488;2023-05-07T00:21:38;24.10;;;14.25;;
53618;SDS011;68717;53.040;18.488;2023-05-07T00:21:51;23.00;;;14.10;;
53618;SDS011;68717;53.040;18.488;2023-05-07T00:22:05;22.95;;;14.13;;
53618;SDS011;68717;53.040;18.488;2023-05-07T00:22:18;23.88;;;14.40;;
53618;SDS011;68717;53.040;18.488;2023-05-07T00:22:30;25.65;;;14.60;;
53618;SDS011;68717;53.040;18.488;2023-05-07T00:22:44;27.02;;;14.70;;
53618;SDS011;68717;53.040;18.488;2023-05-07T00:22:57;27.30;;;14.85;;
53618;SDS011;68717;53.040;18.488;2023-05-07T00:23:09;25.85;;;14.68;;
53618;SDS011;68717;53.040;18.488;2023-05-07T00:23:22;25.33;;;14.98;;
53618;SDS011;68717;53.040;18.488;2023-05-07T00:23:35;26.45;;;15.40;;
53618;SDS011;68717;53.040;18.488;2023-05-07T00:23:47;24.58;;;14.95;;
53618;SDS011;68717;53.040;18.488;2023-05-07T00:24:00;23.17;;;14.43;;
53618;SDS011;68717;53.040;18.488;2023-05-07T00:24:13;23.52;;;14.48;;
53618;SDS011;68717;53.040;18.488;2023-05-07T00:24:26;24.67;;;14.32;;
53618;SDS011;68717;53.040;18.488;2023-05-07T00:24:39;24.95;;;14.48;;
53618;SDS011;68717;53.040;18.488;2023-05-07T00:24:51;24.63;;;14.30;;
53618;SDS011;68717;53.040;18.488;2023-05-07T00:25:05;25.08;;;14.23;;
53618;SDS011;68717;53.040;18.488;2023-05-07T00:25:18;23.77;;;14.10;;
53618;SDS011;68717;53.040;18.488;2023-05-07T00:25:31;24.23;;;14.40;;
53618;SDS011;68717;53.040;18.488;2023-05-07T00:25:44;25.85;;;14.98;;
53618;SDS011;68717;53.040;18.488;2023-05-07T00:25:56;26.77;;;15.52;;
53618;SDS011;68717;53.040;18.488;2023-05-07T00:26:10;26.38;;;15.40;;
53618;SDS011;68717;53.040;18.488;2023-05-07T00:26:22;26.05;;;15.05;;
53618;SDS011;68717;53.040;18.488;2023-05-07T00:26:35;25.52;;;14.90;;
53618;SDS011;68717;53.040;18.488;2023-05-07T00:26:47;24.88;;;14.60;;
53618;SDS011;68717;53.040;18.488;2023-05-07T00:27:00;25.00;;;14.57;;
53618;SDS011;68717;53.040;18.488;2023-05-07T00:27:12;24.92;;;14.60;;
53618;SDS011;68717;53.040;18.488;2023-05-07T00:27:25;24.77;;;14.70;;
53618;SDS011;68717;53.040;18.488;2023-05-07T00:27:38;26.40;;;15.15;;
53618;SDS011;68717;53.040;18.488;2023-05-07T00:27:51;27.80;;;15.73;;
53618;SDS011;68717;53.040;18.488;2023-05-07T00:28:04;28.98;;;16.40;;
53618;SDS011;68717;53.040;18.488;2023-05-07T00:28:17;30.08;;;16.80;;
53618;SDS011;68717;53.040;18.488;2023-05-07T00:28:29;29.65;;;17.10;;
53618;SDS011;68717;53.040;18.488;2023-05-07T00:28:42;28.55;;;17.08;;
53618;SDS011;68717;53.040;18.488;2023-05-07T00:28:54;27.95;;;16.92;;
53618;SDS011;68717;53.040;18.488;2023-05-07T00:29:08;28.55;;;16.70;;
53618;SDS011;68717;53.040;18.488;2023-05-07T00:29:20;29.95;;;16.23;;
53618;SDS011;68717;53.040;18.488;2023-05-07T00:29:33;29.40;;;15.93;;
53618;SDS011;68717;53.040;18.488;2023-05-07T00:29:45;28.38;;;16.00;;
53618;SDS011;68717;53.040;18.488;2023-05-07T00:29:58;27.50;;;16.23;;
53618;SDS011;68717;53.040;18.488;2023-05-07T00:30:11;28.20;;;16.77;;
53618;SDS011;68717;53.040;18.488;2023-05-07T00:30:24;27.70;;;16.77;;
53618;SDS011;68717;53.040;18.488;2023-05-07T00:30:37;26.48;;;16.35;;
53618;SDS011;68717;53.040;18.488;2023-05-07T00:30:50;26.63;;;16.25;;
53618;SDS011;68717;53.040;18.488;2023-05-07T00:31:02;26.63;;;16.15;;
53618;SDS011;68717;53.040;18.488;2023-05-07T00:31:15;27.92;;;16.13;;
53618;SDS011;68717;53.040;18.488;2023-05-07T00:31:28;28.30;;;16.17;;
53618;SDS011;68717;53.040;18.488;2023-05-07T00:31:42;28.32;;;16.26;;
53618;SDS011;68717;53.040;18.488;2023-05-07T00:31:55;28.52;;;16.50;;
53618;SDS011;68717;53.040;18.488;2023-05-07T00:32:07;28.40;;;16.83;;
53618;SDS011;68717;53.040;18.488;2023-05-07T00:32:21;28.15;;;16.98;;
53618;SDS011;68717;53.040;18.488;2023-05-07T00:32:34;32.30;;;19.33;;
53618;SDS011;68717;53.040;18.488;2023-05-07T00:32:47;41.28;;;23.75;;
53618;SDS011;68717;53.040;18.488;2023-05-07T00:33:01;48.08;;;27.55;;
53618;SDS011;68717;53.040;18.488;2023-05-07T00:33:13;49.35;;;27.65;;
53618;SDS011;68717;53.040;18.488;2023-05-07T00:33:26;48.85;;;27.40;;
53618;SDS011;68717;53.040;18.488;2023-05-07T00:33:38;51.33;;;28.70;;
53618;SDS011;68717;53.040;18.488;2023-05-07T00:33:52;47.80;;;27.02;;
53618;SDS011;68717;53.040;18.488;2023-05-07T00:34:05;41.97;;;24.40;;
53618;SDS011;68717;53.040;18.488;2023-05-07T00:34:18;37.78;;;22.65;;
53618;SDS011;68717;53.040;18.488;2023-05-07T00:34:32;32.90;;;19.95;;
53618;SDS011;68717;53.040;18.488;2023-05-07T00:34:44;28.17;;;17.40;;
53618;SDS011;68717;53.040;18.488;2023-05-07T00:34:57;27.13;;;16.52;;
53618;SDS011;68717;53.040;18.488;2023-05-07T00:35:09;32.88;;;18.38;;
53618;SDS011;68717;53.040;18.488;2023-05-07T00:35:23;38.28;;;20.38;;
53618;SDS011;68717;53.040;18.488;2023-05-07T00:35:36;37.15;;;20.10;;
53618;SDS011;68717;53.040;18.488;2023-05-07T00:35:49;31.15;;;17.88;;
53618;SDS011;68717;53.040;18.488;2023-05-07T00:36:02;26.73;;;15.75;;
53618;SDS011;68717;53.040;18.488;2023-05-07T00:36:15;24.60;;;15.43;;
53618;SDS011;68717;53.040;18.488;2023-05-07T00:36:27;25.55;;;14.93;;
53618;SDS011;68717;53.040;18.488;2023-05-07T00:36:42;27.00;;;15.18;;
53618;SDS011;68717;53.040;18.488;2023-05-07T00:36:54;26.63;;;15.30;;
53618;SDS011;68717;53.040;18.488;2023-05-07T00:37:07;26.95;;;15.80;;
53618;SDS011;68717;53.040;18.488;2023-05-07T00:37:20;28.80;;;16.27;;
53618;SDS011;68717;53.040;18.488;2023-05-07T00:37:33;31.20;;;17.42;;
53618;SDS011;68717;53.040;18.488;2023-05-07T00:37:46;37.30;;;21.05;;
53618;SDS011;68717;53.040;18.488;2023-05-07T00:37:58;39.65;;;23.25;;
53618;SDS011;68717;53.040;18.488;2023-05-07T00:38:11;36.72;;;22.02;;
53618;SDS011;68717;53.040;18.488;2023-05-07T00:38:24;32.28;;;20.00;;
53618;SDS011;68717;53.040;18.488;2023-05-07T00:38:37;31.75;;;19.08;;
53618;SDS011;68717;53.040;18.488;2023-05-07T00:38:49;31.17;;;18.23;;
53618;SDS011;68717;53.040;18.488;2023-05-07T00:39:02;29.42;;;17.00;;
53618;SDS011;68717;53.040;18.488;2023-05-07T00:39:16;28.55;;;16.45;;
53618;SDS011;68717;53.040;18.488;2023-05-07T00:39:28;27.58;;;16.30;;
53618;SDS011;68717;53.040;18.488;2023-05-07T00:39:41;27.65;;;16.13;;
53618;SDS011;68717;53.040;18.488;2023-05-07T00:39:53;27.58;;;16.23;;
53618;SDS011;68717;53.040;18.488;2023-05-07T00:40:07;25.83;;;15.45;;
53618;SDS011;68717;53.040;18.488;2023-05-07T00:40:21;26.52;;;15.02;;
53618;SDS011;68717;53.040;18.488;2023-05-07T00:40:33;27.70;;;15.50;;
53618;SDS011;68717;53.040;18.488;2023-05-07T00:40:46;27.70;;;15.73;;
53618;SDS011;68717;53.040;18.488;2023-05-07T00:40:59;26.75;;;15.90;;
53618;SDS011;68717;53.040;18.488;2023-05-07T00:41:11;24.85;;;15.07;;
53618;SDS011;68717;53.040;18.488;2023-05-07T00:41:25;23.50;;;13.82;;
53618;SDS011;68717;53.040;18.488;2023-05-07T00:41:38;23.50;;;13.68;;
53618;SDS011;68717;53.040;18.488;2023-05-07T00:41:50;23.17;;;13.73;;
53618;SDS011;68717;53.040;18.488;2023-05-07T00:42:03;23.08;;;13.50;;
53618;SDS011;68717;53.040;18.488;2023-05-07T00:42:16;24.52;;;13.50;;
53618;SDS011;68717;53.040;18.488;2023-05-07T00:42:28;24.65;;;13.40;;
53618;SDS011;68717;53.040;18.488;2023-05-07T00:42:41;24.40;;;13.35;;
53618;SDS011;68717;53.040;18.488;2023-05-07T00:42:58;23.70;;;13.60;;
53618;SDS011;68717;53.040;18.488;2023-05-07T00:43:12;22.98;;;13.77;;
53618;SDS011;68717;53.040;18.488;2023-05-07T00:43:25;24.02;;;14.23;;
53618;SDS011;68717;53.040;18.488;2023-05-07T00:43:39;23.42;;;14.40;;
53618;SDS011;68717;53.040;18.488;2023-05-07T00:43:52;25.15;;;14.30;;
53618;SDS011;68717;53.040;18.488;2023-05-07T00:44:04;25.33;;;14.02;;
53618;SDS011;68717;53.040;18.488;2023-05-07T00:44:17;24.27;;;14.13;;
53618;SDS011;68717;53.040;18.488;2023-05-07T00:44:31;25.88;;;14.75;;
53618;SDS011;68717;53.040;18.488;2023-05-07T00:44:43;28.38;;;15.48;;
53618;SDS011;68717;53.040;18.488;2023-05-07T00:44:56;27.17;;;15.43;;
53618;SDS011;68717;53.040;18.488;2023-05-07T00:45:09;26.42;;;15.63;;
53618;SDS011;68717;53.040;18.488;2023-05-07T00:45:22;25.13;;;15.05;;
53618;SDS011;68717;53.040;18.488;2023-05-07T00:45:38;25.90;;;14.93;;
53618;SDS011;68717;53.040;18.488;2023-05-07T00:45:51;26.40;;;15.25;;
53618;SDS011;68717;53.040;18.488;2023-05-07T00:46:03;26.70;;;15.55;;
53618;SDS011;68717;53.040;18.488;2023-05-07T00:46:18;25.35;;;15.55;;
53618;SDS011;68717;53.040;18.488;2023-05-07T00:46:33;24.92;;;15.68;;
53618;SDS011;68717;53.040;18.488;2023-05-07T00:46:47;25.40;;;15.25;;
53618;SDS011;68717;53.040;18.488;2023-05-07T00:47:02;24.92;;;14.60;;
53618;SDS011;68717;53.040;18.488;2023-05-07T00:47:16;22.73;;;13.63;;
53618;SDS011;68717;53.040;18.488;2023-05-07T00:47:29;21.58;;;12.98;;
53618;SDS011;68717;53.040;18.488;2023-05-07T00:47:44;20.23;;;12.18;;
53618;SDS011;68717;53.040;18.488;2023-05-07T00:47:57;20.75;;;12.32;;
53618;SDS011;68717;53.040;18.488;2023-05-07T00:48:12;23.42;;;13.88;;
53618;SDS011;68717;53.040;18.488;2023-05-07T00:48:26;25.55;;;14.73;;
53618;SDS011;68717;53.040;18.488;2023-05-07T00:48:39;27.27;;;14.60;;
53618;SDS011;68717;53.040;18.488;2023-05-07T00:48:52;26.95;;;14.48;;
53618;SDS011;68717;53.040;18.488;2023-05-07T00:49:06;24.05;;;13.63;;
53618;SDS011;68717;53.040;18.488;2023-05-07T00:49:19;23.83;;;13.48;;
53618;SDS011;68717;53.040;18.488;2023-05-07T00:49:35;22.45;;;13.38;;
53618;SDS011;68717;53.040;18.488;2023-05-07T00:49:50;21.00;;;13.00;;
53618;SDS011;68717;53.040;18.488;2023-05-07T00:50:04;22.13;;;13.15;;
53618;SDS011;68717;53.040;18.488;2023-05-07T00:50:17;23.65;;;13.93;;
53618;SDS011;68717;53.040;18.488;2023-05-07T00:50:31;23.90;;;14.13;;
53618;SDS011;68717;53.040;18.488;2023-05-07T00:50:46;23.08;;;13.95;;
53618;SDS011;68717;53.040;18.488;2023-05-07T00:50:59;22.05;;;13.75;;
53618;SDS011;68717;53.040;18.488;2023-05-07T00:51:12;21.83;;;13.60;;
53618;SDS011;68717;53.040;18.488;2023-05-07T00:51:25;21.35;;;13.15;;
53618;SDS011;68717;53.040;18.488;2023-05-07T00:51:39;21.20;;;12.93;;
53618;SDS011;68717;53.040;18.488;2023-05-07T00:51:52;22.35;;;13.27;;
53618;SDS011;68717;53.040;18.488;2023-05-07T00:52:05;21.40;;;12.85;;
53618;SDS011;68717;53.040;18.488;2023-05-07T00:52:20;20.92;;;12.13;;
53618;SDS011;68717;53.040;18.488;2023-05-07T00:52:36;20.90;;;12.27;;
53618;SDS011;68717;53.040;18.488;2023-05-07T00:52:49;19.63;;;12.00;;
53618;SDS011;68717;53.040;18.488;2023-05-07T00:53:02;19.42;;;11.63;;
53618;SDS011;68717;53.040;18.488;2023-05-07T00:53:16;19.58;;;11.65;;
53618;SDS011;68717;53.040;18.488;2023-05-07T00:53:28;19.85;;;11.70;;
53618;SDS011;68717;53.040;18.488;2023-05-07T00:53:42;20.02;;;12.05;;
53618;SDS011;68717;53.040;18.488;2023-05-07T00:53:56;20.17;;;12.20;;
53618;SDS011;68717;53.040;18.488;2023-05-07T00:54:09;21.33;;;12.30;;
53618;SDS011;68717;53.040;18.488;2023-05-07T00:54:22;21.20;;;12.25;;
53618;SDS011;68717;53.040;18.488;2023-05-07T00:54:34;20.33;;;11.85;;
53618;SDS011;68717;53.040;18.488;2023-05-07T00:54:47;19.88;;;11.60;;
53618;SDS011;68717;53.040;18.488;2023-05-07T00:55:00;19.70;;;11.40;;
53618;SDS011;68717;53.040;18.488;2023-05-07T00:55:17;20.85;;;11.77;;
53618;SDS011;68717;53.040;18.488;2023-05-07T00:55:30;20.10;;;11.32;;
53618;SDS011;68717;53.040;18.488;2023-05-07T00:55:42;20.08;;;11.43;;
53618;SDS011;68717;53.040;18.488;2023-05-07T00:55:56;21.02;;;11.90;;
53618;SDS011;68717;53.040;18.488;2023-05-07T00:56:09;22.95;;;12.10;;
53618;SDS011;68717;53.040;18.488;2023-05-07T00:56:22;24.08;;;12.40;;
53618;SDS011;68717;53.040;18.488;2023-05-07T00:56:35;21.77;;;12.52;;
53618;SDS011;68717;53.040;18.488;2023-05-07T00:56:48;21.65;;;13.35;;
53618;SDS011;68717;53.040;18.488;2023-05-07T00:57:01;21.92;;;13.82;;
53618;SDS011;68717;53.040;18.488;2023-05-07T00:57:14;24.00;;;14.40;;
53618;SDS011;68717;53.040;18.488;2023-05-07T00:57:29;25.88;;;14.65;;
53618;SDS011;68717;53.040;18.488;2023-05-07T00:57:41;24.75;;;14.20;;
53618;SDS011;68717;53.040;18.488;2023-05-07T00:57:54;24.42;;;13.65;;
53618;SDS011;68717;53.040;18.488;2023-05-07T00:58:07;23.52;;;13.38;;
53618;SDS011;68717;53.040;18.488;2023-05-07T00:58:21;20.95;;;12.80;;
53618;SDS011;68717;53.040;18.488;2023-05-07T00:58:34;21.17;;;12.98;;
53618;SDS011;68717;53.040;18.488;2023-05-07T00:58:47;21.73;;;13.20;;
53618;SDS011;68717;53.040;18.488;2023-05-07T00:59:01;21.63;;;13.35;;
53618;SDS011;68717;53.040;18.488;2023-05-07T00:59:14;21.73;;;13.10;;
53618;SDS011;68717;53.040;18.488;2023-05-07T00:59:27;21.67;;;13.05;;
53618;SDS011;68717;53.040;18.488;2023-05-07T00:59:40;22.90;;;13.75;;
53618;SDS011;68717;53.040;18.488;2023-05-07T00:59:53;23.00;;;14.32;;
53618;SDS011;68717;53.040;18.488;2023-05-07T01:00:06;22.27;;;14.27;;
53618;SDS011;68717;53.040;18.488;2023-05-07T01:00:21;22.00;;;13.57;;
53618;SDS011;68717;53.040;18.488;2023-05-07T01:00:33;21.10;;;13.18;;
53618;SDS011;68717;53.040;18.488;2023-05-07T01:00:46;21.62;;;13.36;;
53618;SDS011;68717;53.040;18.488;2023-05-07T01:01:00;21.20;;;12.85;;
53618;SDS011;68717;53.040;18.488;2023-05-07T01:01:13;19.95;;;12.27;;
53618;SDS011;68717;53.040;18.488;2023-05-07T01:01:28;20.42;;;12.30;;
53618;SDS011;68717;53.040;18.488;2023-05-07T01:01:40;20.63;;;12.23;;
53618;SDS011;68717;53.040;18.488;2023-05-07T01:01:54;21.58;;;12.38;;
53618;SDS011;68717;53.040;18.488;2023-05-07T01:02:07;22.92;;;12.73;;
53618;SDS011;68717;53.040;18.488;2023-05-07T01:02:21;23.17;;;12.93;;
53618;SDS011;68717;53.040;18.488;2023-05-07T01:02:34;22.27;;;12.77;;
53618;SDS011;68717;53.040;18.488;2023-05-07T01:02:47;22.20;;;12.73;;
53618;SDS011;68717;53.040;18.488;2023-05-07T01:03:00;21.98;;;12.43;;
53618;SDS011;68717;53.040;18.488;2023-05-07T01:03:13;20.48;;;11.80;;
53618;SDS011;68717;53.040;18.488;2023-05-07T01:03:26;21.77;;;12.57;;
53618;SDS011;68717;53.040;18.488;2023-05-07T01:03:40;21.98;;;13.00;;
53618;SDS011;68717;53.040;18.488;2023-05-07T01:03:54;22.83;;;13.38;;
53618;SDS011;68717;53.040;18.488;2023-05-07T01:04:07;23.27;;;13.57;;
53618;SDS011;68717;53.040;18.488;2023-05-07T01:04:20;22.88;;;13.25;;
53618;SDS011;68717;53.040;18.488;2023-05-07T01:04:33;23.85;;;13.50;;
53618;SDS011;68717;53.040;18.488;2023-05-07T01:04:46;23.30;;;13.60;;
53618;SDS011;68717;53.040;18.488;2023-05-07T01:04:59;23.15;;;13.30;;
53618;SDS011;68717;53.040;18.488;2023-05-07T01:05:14;22.35;;;13.23;;
53618;SDS011;68717;53.040;18.488;2023-05-07T01:05:29;22.27;;;13.02;;
53618;SDS011;68717;53.040;18.488;2023-05-07T01:05:43;22.83;;;13.25;;
53618;SDS011;68717;53.040;18.488;2023-05-07T01:05:58;22.25;;;13.80;;
53618;SDS011;68717;53.040;18.488;2023-05-07T01:06:13;22.85;;;13.88;;
53618;SDS011;68717;53.040;18.488;2023-05-07T01:06:29;23.08;;;13.82;;
53618;SDS011;68717;53.040;18.488;2023-05-07T01:06:45;21.45;;;13.20;;
53618;SDS011;68717;53.040;18.488;2023-05-07T01:06:59;21.13;;;13.23;;
53618;SDS011;68717;53.040;18.488;2023-05-07T01:07:14;22.00;;;13.73;;
53618;SDS011;68717;53.040;18.488;2023-05-07T01:07:27;22.75;;;13.82;;
53618;SDS011;68717;53.040;18.488;2023-05-07T01:07:40;23.23;;;13.52;;
53618;SDS011;68717;53.040;18.488;2023-05-07T01:07:54;23.95;;;13.55;;
53618;SDS011;68717;53.040;18.488;2023-05-07T01:08:08;23.75;;;13.80;;
53618;SDS011;68717;53.040;18.488;2023-05-07T01:08:22;22.63;;;13.50;;
53618;SDS011;68717;53.040;18.488;2023-05-07T01:08:38;22.48;;;13.10;;
53618;SDS011;68717;53.040;18.488;2023-05-07T01:08:51;21.58;;;12.75;;
53618;SDS011;68717;53.040;18.488;2023-05-07T01:09:05;22.15;;;12.75;;
53618;SDS011;68717;53.040;18.488;2023-05-07T01:09:17;24.40;;;12.98;;
53618;SDS011;68717;53.040;18.488;2023-05-07T01:09:32;22.90;;;12.68;;
53618;SDS011;68717;53.040;18.488;2023-05-07T01:09:47;19.98;;;12.70;;
53618;SDS011;68717;53.040;18.488;2023-05-07T01:10:01;21.00;;;12.73;;
53618;SDS011;68717;53.040;18.488;2023-05-07T01:10:15;22.67;;;12.60;;
53618;SDS011;68717;53.040;18.488;2023-05-07T01:10:28;22.05;;;12.65;;
53618;SDS011;68717;53.040;18.488;2023-05-07T01:10:42;21.10;;;12.43;;
53618;SDS011;68717;53.040;18.488;2023-05-07T01:10:56;21.20;;;12.52;;
53618;SDS011;68717;53.040;18.488;2023-05-07T01:11:09;22.45;;;13.18;;
53618;SDS011;68717;53.040;18.488;2023-05-07T01:11:23;22.42;;;13.60;;
53618;SDS011;68717;53.040;18.488;2023-05-07T01:11:37;21.40;;;13.15;;
53618;SDS011;68717;53.040;18.488;2023-05-07T01:11:51;21.30;;;12.93;;
53618;SDS011;68717;53.040;18.488;2023-05-07T01:12:05;21.73;;;12.63;;
53618;SDS011;68717;53.040;18.488;2023-05-07T01:12:19;20.50;;;12.13;;
53618;SDS011;68717;53.040;18.488;2023-05-07T01:12:32;21.75;;;12.25;;
53618;SDS011;68717;53.040;18.488;2023-05-07T01:12:46;21.75;;;12.25;;
53618;SDS011;68717;53.040;18.488;2023-05-07T01:13:00;20.10;;;11.82;;
53618;SDS011;68717;53.040;18.488;2023-05-07T01:13:15;20.38;;;11.73;;
53618;SDS011;68717;53.040;18.488;2023-05-07T01:13:28;20.35;;;11.77;;
53618;SDS011;68717;53.040;18.488;2023-05-07T01:13:41;19.95;;;11.68;;
53618;SDS011;68717;53.040;18.488;2023-05-07T01:13:55;19.73;;;11.70;;
53618;SDS011;68717;53.040;18.488;2023-05-07T01:14:08;19.42;;;12.00;;
53618;SDS011;68717;53.040;18.488;2023-05-07T01:14:21;19.80;;;12.00;;
53618;SDS011;68717;53.040;18.488;2023-05-07T01:14:35;21.95;;;12.13;;
53618;SDS011;68717;53.040;18.488;2023-05-07T01:14:48;23.00;;;12.38;;
53618;SDS011;68717;53.040;18.488;2023-05-07T01:15:01;22.63;;;12.45;;
53618;SDS011;68717;53.040;18.488;2023-05-07T01:15:15;21.10;;;11.88;;
53618;SDS011;68717;53.040;18.488;2023-05-07T01:15:29;21.42;;;11.74;;
53618;SDS011;68717;53.040;18.488;2023-05-07T01:15:42;21.83;;;11.95;;
53618;SDS011;68717;53.040;18.488;2023-05-07T01:15:55;20.60;;;11.80;;
53618;SDS011;68717;53.040;18.488;2023-05-07T01:16:08;20.02;;;11.50;;
53618;SDS011;68717;53.040;18.488;2023-05-07T01:16:22;20.25;;;11.52;;
53618;SDS011;68717;53.040;18.488;2023-05-07T01:16:35;19.58;;;11.35;;
53618;SDS011;68717;53.040;18.488;2023-05-07T01:16:48;19.38;;;11.57;;
53618;SDS011;68717;53.040;18.488;2023-05-07T01:17:04;19.67;;;11.73;;